createdAt,value
2023-03-29T00:01:35.123Z,12.90
2023-03-29T00:04:06.571Z,12.90
2023-03-29T00:06:35.261Z,12.90
2023-03-29T00:09:05.597Z,12.90
2023-03-29T00:11:32.626Z,12.90
2023-03-29T00:13:59.388Z,12.90
2023-03-29T00:16:26.277Z,12.90
2023-03-29T00:18:53.132Z,12.90
2023-03-29T00:21:19.874Z,12.90
2023-03-29T00:23:46.719Z,12.90
2023-03-29T00:26:13.620Z,12.90
2023-03-29T00:28:41.906Z,12.90
2023-03-29T00:31:10.843Z,12.90
2023-03-29T00:33:38.242Z,12.90
2023-03-29T00:36:06.442Z,13.00
2023-03-29T00:38:33.401Z,13.00
2023-03-29T00:41:00.475Z,13.00
2023-03-29T00:43:27.502Z,13.00
2023-03-29T00:45:54.402Z,13.00
2023-03-29T00:48:23.944Z,13.00
2023-03-29T00:51:10.258Z,13.00
2023-03-29T00:53:39.549Z,13.00
2023-03-29T00:56:10.187Z,13.00
2023-03-29T00:58:39.604Z,13.00
2023-03-29T01:01:10.997Z,13.00
2023-03-29T01:03:41.648Z,13.10
2023-03-29T01:06:09.687Z,13.00
2023-03-29T01:08:42.274Z,13.10
2023-03-29T01:11:18.180Z,13.10
2023-03-29T01:13:51.223Z,13.10
2023-03-29T01:16:19.588Z,13.10
2023-03-29T01:18:47.071Z,13.10
2023-03-29T01:21:21.581Z,13.10
2023-03-29T01:24:07.058Z,13.10
2023-03-29T01:26:52.176Z,13.10
2023-03-29T01:29:27.572Z,13.10
2023-03-29T01:32:03.737Z,13.10
2023-03-29T01:34:34.413Z,13.20
2023-03-29T01:37:04.507Z,13.20
2023-03-29T01:39:31.732Z,13.20
2023-03-29T01:42:01.564Z,13.20
2023-03-29T01:44:43.855Z,13.20
2023-03-29T01:47:10.698Z,13.20
2023-03-29T01:50:00.771Z,13.30
2023-03-29T01:52:38.823Z,13.30
2023-03-29T01:55:10.146Z,13.30
2023-03-29T01:57:38.931Z,13.30
2023-03-29T02:00:12.485Z,13.30
2023-03-29T02:02:44.682Z,13.40
2023-03-29T02:05:13.071Z,13.40
2023-03-29T02:07:40.679Z,13.40
2023-03-29T02:10:08.936Z,13.40
2023-03-29T02:12:36.329Z,13.40
2023-03-29T02:15:04.957Z,13.40
2023-03-29T02:17:31.741Z,13.40
2023-03-29T02:20:02.013Z,13.40
2023-03-29T02:22:33.461Z,13.40
2023-03-29T02:25:01.325Z,13.40
2023-03-29T02:27:29.167Z,13.40
2023-03-29T02:29:57.339Z,13.40
2023-03-29T02:32:44.506Z,13.40
2023-03-29T02:35:14.300Z,13.40
2023-03-29T02:37:43.536Z,13.40
2023-03-29T02:40:12.724Z,13.50
2023-03-29T02:42:41.073Z,13.50
2023-03-29T02:45:08.655Z,13.50
2023-03-29T02:47:38.189Z,13.50
2023-03-29T02:50:05.287Z,13.50
2023-03-29T02:52:36.037Z,13.50
2023-03-29T02:55:05.401Z,13.60
2023-03-29T02:57:32.472Z,13.60
2023-03-29T03:00:01.267Z,13.60
2023-03-29T03:02:28.123Z,13.60
2023-03-29T03:04:55.022Z,13.60
2023-03-29T03:07:21.917Z,13.60
2023-03-29T03:09:49.334Z,13.60
2023-03-29T03:12:16.151Z,13.60
2023-03-29T03:14:46.023Z,13.60
2023-03-29T03:17:12.701Z,13.60
2023-03-29T03:19:39.452Z,13.60
2023-03-29T03:22:07.769Z,13.60
2023-03-29T03:24:34.865Z,13.60
2023-03-29T03:27:01.710Z,13.60
2023-03-29T03:29:28.762Z,13.60
2023-03-29T03:31:55.646Z,13.60
2023-03-29T03:34:22.700Z,13.60
2023-03-29T03:36:50.403Z,13.60
2023-03-29T03:39:17.363Z,13.60
2023-03-29T03:41:43.995Z,13.60
2023-03-29T03:44:11.033Z,13.60
2023-03-29T03:46:38.388Z,13.60
2023-03-29T03:49:05.786Z,13.60
2023-03-29T03:51:35.920Z,13.60
2023-03-29T03:54:02.773Z,13.60
2023-03-29T03:56:30.253Z,13.60
2023-03-29T03:58:57.668Z,13.60
2023-03-29T04:01:24.598Z,13.60
2023-03-29T04:03:51.571Z,13.60
2023-03-29T04:06:19.698Z,13.60
2023-03-29T04:08:48.029Z,13.60
2023-03-29T04:11:15.667Z,13.60
2023-03-29T04:13:42.524Z,13.60
2023-03-29T04:16:09.457Z,13.60
2023-03-29T04:18:38.266Z,13.60
2023-03-29T04:21:05.429Z,13.60
2023-03-29T04:23:32.131Z,13.70
2023-03-29T04:25:59.495Z,13.70
2023-03-29T04:28:26.391Z,13.70
2023-03-29T04:30:53.154Z,13.70
2023-03-29T04:33:20.027Z,13.70
2023-03-29T04:35:47.094Z,13.70
2023-03-29T04:38:14.911Z,13.70
2023-03-29T04:40:42.772Z,13.70
2023-03-29T04:43:09.651Z,13.70
2023-03-29T04:45:36.955Z,13.70
2023-03-29T04:48:03.842Z,13.70
2023-03-29T04:50:32.017Z,13.70
2023-03-29T04:53:00.411Z,13.70
2023-03-29T04:55:27.076Z,13.70
2023-03-29T04:57:53.956Z,13.70
2023-03-29T05:00:27.120Z,13.70
2023-03-29T05:02:54.206Z,13.70
2023-03-29T05:05:21.278Z,13.70
2023-03-29T05:07:49.145Z,13.70
2023-03-29T05:10:16.902Z,13.70
2023-03-29T05:12:43.621Z,13.70
2023-03-29T05:15:11.653Z,13.70
2023-03-29T05:17:38.495Z,13.70
2023-03-29T05:20:14.971Z,13.70
2023-03-29T05:22:41.962Z,13.70
2023-03-29T05:25:09.860Z,13.70
2023-03-29T05:27:37.104Z,13.70
2023-03-29T05:30:04.062Z,13.70
2023-03-29T05:32:33.631Z,13.80
2023-03-29T05:35:00.289Z,13.80
2023-03-29T05:37:27.151Z,13.80
2023-03-29T05:39:54.944Z,13.80
2023-03-29T05:42:32.896Z,13.80
2023-03-29T05:44:59.701Z,13.80
2023-03-29T05:47:26.814Z,13.90
2023-03-29T05:49:53.519Z,13.80
2023-03-29T05:52:20.163Z,13.80
2023-03-29T05:54:46.862Z,13.90
2023-03-29T05:57:13.874Z,13.90
2023-03-29T05:59:40.690Z,13.90
2023-03-29T06:02:07.446Z,13.90
2023-03-29T06:04:34.559Z,13.90
2023-03-29T06:07:02.176Z,14.00
2023-03-29T06:09:29.957Z,14.00
2023-03-29T06:11:58.097Z,14.00
2023-03-29T06:14:25.699Z,14.00
2023-03-29T06:16:53.486Z,14.00
2023-03-29T06:19:20.347Z,14.10
2023-03-29T06:21:47.363Z,14.10
2023-03-29T06:24:14.192Z,14.10
2023-03-29T06:26:42.149Z,14.20
2023-03-29T06:29:09.511Z,14.20
2023-03-29T06:31:36.566Z,14.20
2023-03-29T06:34:04.859Z,14.30
2023-03-29T06:36:34.462Z,14.30
2023-03-29T06:39:01.137Z,14.30
2023-03-29T06:41:27.978Z,14.40
2023-03-29T06:43:55.322Z,14.40
2023-03-29T06:46:22.633Z,14.50
2023-03-29T06:48:49.377Z,14.50
2023-03-29T06:51:16.017Z,14.60
2023-03-29T06:53:42.709Z,14.60
2023-03-29T06:56:09.860Z,14.60
2023-03-29T06:58:37.151Z,14.70
2023-03-29T07:01:04.855Z,14.70
2023-03-29T07:03:35.077Z,14.70
2023-03-29T07:06:04.550Z,14.80
2023-03-29T07:08:31.797Z,14.90
2023-03-29T07:10:59.601Z,14.90
2023-03-29T07:13:26.448Z,15.00
2023-03-29T07:15:53.611Z,15.10
2023-03-29T07:18:23.059Z,15.10
2023-03-29T07:20:50.116Z,15.20
2023-03-29T07:23:18.142Z,15.20
2023-03-29T07:25:44.996Z,15.20
2023-03-29T07:28:11.840Z,15.30
2023-03-29T07:30:41.519Z,15.40
2023-03-29T07:33:09.436Z,15.40
2023-03-29T07:35:37.450Z,15.40
2023-03-29T07:38:04.415Z,15.50
2023-03-29T07:40:31.285Z,15.50
2023-03-29T07:42:58.932Z,15.60
2023-03-29T07:45:28.671Z,15.60
2023-03-29T07:47:57.569Z,15.70
2023-03-29T07:50:24.980Z,15.70
2023-03-29T07:52:51.861Z,15.80
2023-03-29T07:55:19.074Z,15.90
2023-03-29T07:57:46.005Z,15.90
2023-03-29T08:00:16.736Z,15.90
2023-03-29T08:02:44.688Z,16.00
2023-03-29T08:05:12.929Z,16.10
2023-03-29T08:07:41.434Z,16.10
2023-03-29T08:10:10.830Z,16.10
2023-03-29T08:12:37.781Z,16.10
2023-03-29T08:15:05.510Z,16.20
2023-03-29T08:17:32.657Z,16.20
2023-03-29T08:19:59.506Z,16.20
2023-03-29T08:22:26.308Z,16.20
2023-03-29T08:24:53.016Z,16.20
2023-03-29T08:27:19.833Z,16.30
2023-03-29T08:29:46.695Z,16.40
2023-03-29T08:32:13.725Z,16.40
2023-03-29T08:34:41.466Z,16.50
2023-03-29T08:37:09.941Z,16.50
2023-03-29T08:39:37.755Z,16.50
2023-03-29T08:42:04.419Z,16.60
2023-03-29T08:44:39.283Z,16.70
2023-03-29T08:47:12.257Z,16.80
2023-03-29T08:49:40.447Z,16.80
2023-03-29T08:52:14.417Z,16.90
2023-03-29T08:54:43.562Z,16.90
2023-03-29T08:57:22.166Z,17.00
2023-03-29T08:59:53.507Z,17.10
2023-03-29T09:02:23.348Z,17.10
2023-03-29T09:04:50.863Z,17.20
2023-03-29T09:07:17.937Z,17.20
2023-03-29T09:09:45.419Z,17.20
2023-03-29T09:12:12.464Z,17.30
2023-03-29T09:14:45.979Z,17.30
2023-03-29T09:17:15.551Z,17.20
2023-03-29T09:19:51.750Z,17.30
2023-03-29T09:22:32.592Z,17.30
2023-03-29T09:25:21.320Z,17.30
2023-03-29T09:27:59.538Z,17.40
2023-03-29T09:30:32.034Z,17.50
2023-03-29T09:33:08.356Z,17.50
2023-03-29T09:35:41.485Z,17.60
2023-03-29T09:38:11.261Z,17.60
2023-03-29T09:40:39.845Z,17.70
2023-03-29T09:43:09.876Z,17.80
2023-03-29T09:45:38.723Z,17.80
2023-03-29T09:48:15.754Z,17.80
2023-03-29T09:50:43.846Z,17.90
2023-03-29T09:53:10.827Z,17.90
2023-03-29T09:55:39.961Z,17.90
2023-03-29T09:58:14.295Z,17.90
2023-03-29T10:00:41.126Z,17.90
2023-03-29T10:03:10.141Z,17.90
2023-03-29T10:05:37.995Z,18.00
2023-03-29T10:08:14.401Z,18.00
2023-03-29T10:10:41.502Z,18.10
2023-03-29T10:13:13.465Z,18.20
2023-03-29T10:15:40.405Z,18.30
2023-03-29T10:18:10.940Z,18.40
2023-03-29T10:20:39.949Z,18.50
2023-03-29T10:23:08.476Z,18.60
2023-03-29T10:25:39.743Z,18.70
2023-03-29T10:28:11.569Z,18.80
2023-03-29T10:30:40.195Z,18.80
2023-03-29T10:33:14.600Z,18.80
2023-03-29T10:35:44.561Z,18.80
2023-03-29T10:38:17.181Z,18.90
2023-03-29T10:40:44.270Z,18.80
2023-03-29T10:43:12.554Z,18.80
2023-03-29T10:45:39.748Z,18.90
2023-03-29T10:48:08.306Z,18.90
2023-03-29T10:50:38.082Z,18.90
2023-03-29T10:53:10.768Z,18.80
2023-03-29T10:55:43.969Z,18.70
2023-03-29T10:58:24.721Z,18.80
2023-03-29T11:00:58.121Z,18.70
2023-03-29T11:03:51.399Z,18.70
2023-03-29T11:06:37.852Z,18.60
2023-03-29T11:09:24.817Z,18.60
2023-03-29T11:12:15.035Z,18.50
2023-03-29T11:14:46.266Z,18.50
2023-03-29T11:17:32.267Z,18.50
2023-03-29T11:20:16.290Z,18.40
2023-03-29T11:23:15.384Z,18.40
2023-03-29T11:26:00.908Z,18.40
2023-03-29T11:28:37.173Z,18.50
2023-03-29T11:31:26.751Z,18.50
2023-03-29T11:34:08.138Z,18.50
2023-03-29T11:36:40.737Z,18.60
2023-03-29T11:39:34.027Z,18.60
2023-03-29T11:42:07.849Z,18.60
2023-03-29T11:44:35.858Z,18.70
2023-03-29T11:47:20.528Z,18.70
2023-03-29T11:49:51.804Z,18.80
2023-03-29T11:52:21.415Z,18.80
2023-03-29T11:55:05.361Z,18.90
2023-03-29T11:57:35.274Z,18.90
2023-03-29T12:00:06.433Z,19.00
2023-03-29T12:02:42.507Z,19.00
2023-03-29T12:05:20.481Z,19.00
2023-03-29T12:07:59.760Z,19.00
2023-03-29T12:10:33.986Z,19.00
2023-03-29T12:13:06.352Z,18.90
2023-03-29T12:15:36.372Z,18.90
2023-03-29T12:18:15.927Z,19.00
2023-03-29T12:20:42.760Z,19.00
2023-03-29T12:23:12.979Z,19.00
2023-03-29T12:25:58.252Z,19.00
2023-03-29T12:28:41.173Z,19.00
2023-03-29T12:31:07.961Z,19.00
2023-03-29T12:33:49.663Z,19.00
2023-03-29T12:36:35.377Z,18.90
2023-03-29T12:39:02.331Z,18.90
2023-03-29T12:41:29.148Z,18.80
2023-03-29T12:44:01.422Z,18.80
2023-03-29T12:46:32.168Z,18.80
2023-03-29T12:49:09.538Z,18.70
2023-03-29T12:51:36.928Z,18.60
2023-03-29T12:54:03.874Z,18.70
2023-03-29T12:56:41.037Z,18.70
2023-03-29T12:59:10.823Z,18.70
2023-03-29T13:01:38.852Z,18.80
2023-03-29T13:04:14.883Z,18.80
2023-03-29T13:06:47.952Z,18.80
2023-03-29T13:09:29.314Z,18.90
2023-03-29T13:12:02.924Z,19.00
2023-03-29T13:14:31.868Z,19.10
2023-03-29T13:17:15.557Z,19.20
2023-03-29T13:20:14.927Z,19.40
2023-03-29T13:22:41.756Z,19.50
2023-03-29T13:25:47.195Z,19.50
2023-03-29T13:28:23.901Z,19.70
2023-03-29T13:30:54.237Z,19.80
2023-03-29T13:33:41.809Z,19.90
2023-03-29T13:36:08.744Z,20.00
2023-03-29T13:38:46.328Z,20.00
2023-03-29T13:41:43.811Z,20.00
2023-03-29T13:44:22.796Z,20.10
2023-03-29T13:46:50.303Z,20.10
2023-03-29T13:49:20.424Z,20.10
2023-03-29T13:51:53.012Z,20.20
2023-03-29T13:54:40.711Z,20.10
2023-03-29T13:57:10.396Z,20.10
2023-03-29T13:59:55.678Z,20.20
2023-03-29T14:02:31.098Z,20.20
2023-03-29T14:05:00.369Z,20.30
2023-03-29T14:07:28.083Z,20.40
2023-03-29T14:09:55.590Z,20.50
2023-03-29T14:12:22.407Z,20.60
2023-03-29T14:14:58.885Z,20.70
2023-03-29T14:17:26.758Z,20.80
2023-03-29T14:19:53.661Z,20.90
2023-03-29T14:22:21.478Z,20.90
2023-03-29T14:24:51.838Z,21.00
2023-03-29T14:27:19.214Z,21.10
2023-03-29T14:29:49.893Z,21.20
2023-03-29T14:32:18.016Z,21.20
2023-03-29T14:34:48.295Z,21.30
2023-03-29T14:37:19.023Z,21.40
2023-03-29T14:39:45.726Z,21.40
2023-03-29T14:42:16.716Z,21.60
2023-03-29T14:44:45.081Z,21.60
2023-03-29T14:47:16.435Z,21.70
2023-03-29T14:49:44.377Z,21.70
2023-03-29T14:52:11.702Z,21.90
2023-03-29T14:54:40.190Z,22.00
2023-03-29T14:57:07.995Z,22.00
2023-03-29T14:59:34.864Z,22.10
2023-03-29T15:02:02.817Z,22.20
2023-03-29T15:04:34.137Z,22.20
2023-03-29T15:07:01.321Z,22.20
2023-03-29T15:09:31.892Z,22.30
2023-03-29T15:11:59.655Z,22.30
2023-03-29T15:14:28.236Z,22.40
2023-03-29T15:16:58.432Z,22.50
2023-03-29T15:19:25.802Z,22.60
2023-03-29T15:21:52.641Z,22.50
2023-03-29T15:24:23.496Z,22.50
2023-03-29T15:27:04.386Z,22.40
2023-03-29T15:29:42.113Z,22.40
2023-03-29T15:32:09.917Z,22.30
2023-03-29T15:34:38.337Z,22.30
2023-03-29T15:37:05.233Z,22.20
2023-03-29T15:39:32.243Z,22.20
2023-03-29T15:41:59.419Z,22.10
2023-03-29T15:44:32.592Z,22.10
2023-03-29T15:47:02.613Z,22.00
2023-03-29T15:49:29.349Z,21.90
2023-03-29T15:51:56.109Z,21.90
2023-03-29T15:54:24.475Z,21.80
2023-03-29T15:56:56.652Z,21.80
2023-03-29T15:59:23.530Z,21.70
2023-03-29T16:01:50.967Z,21.70
2023-03-29T16:04:19.070Z,21.70
2023-03-29T16:06:48.742Z,21.60
2023-03-29T16:09:16.111Z,21.60
2023-03-29T16:11:44.353Z,21.60
2023-03-29T16:14:20.061Z,21.60
2023-03-29T16:16:47.256Z,21.60
2023-03-29T16:19:14.006Z,21.60
2023-03-29T16:21:40.747Z,21.50
2023-03-29T16:24:11.672Z,21.40
2023-03-29T16:26:39.187Z,21.40
2023-03-29T16:29:06.384Z,21.40
2023-03-29T16:31:33.233Z,21.40
2023-03-29T16:33:59.867Z,21.40
2023-03-29T16:36:26.734Z,21.40
2023-03-29T16:38:53.644Z,21.30
2023-03-29T16:41:20.252Z,21.30
2023-03-29T16:43:46.987Z,21.30
2023-03-29T16:46:13.998Z,21.30
2023-03-29T16:48:40.916Z,21.20
2023-03-29T16:51:08.474Z,21.20
2023-03-29T16:53:35.680Z,21.20
2023-03-29T16:56:03.157Z,21.20
2023-03-29T16:58:30.384Z,21.20
2023-03-29T17:00:57.748Z,21.10
2023-03-29T17:03:25.135Z,21.10
2023-03-29T17:05:52.973Z,21.00
2023-03-29T17:08:20.845Z,21.00
2023-03-29T17:10:52.386Z,21.00
2023-03-29T17:13:20.709Z,20.90
2023-03-29T17:15:47.605Z,20.90
2023-03-29T17:18:14.651Z,20.80
2023-03-29T17:20:41.463Z,20.80
2023-03-29T17:23:08.953Z,20.80
2023-03-29T17:25:36.525Z,20.80
2023-03-29T17:28:03.366Z,20.80
2023-03-29T17:30:30.027Z,20.70
2023-03-29T17:32:56.942Z,20.70
2023-03-29T17:35:23.827Z,20.70
2023-03-29T17:37:50.712Z,20.60
2023-03-29T17:40:18.705Z,20.60
2023-03-29T17:42:48.879Z,20.60
2023-03-29T17:45:15.869Z,20.60
2023-03-29T17:47:42.963Z,20.60
2023-03-29T17:50:10.572Z,20.50
2023-03-29T17:52:39.701Z,20.50
2023-03-29T17:55:11.255Z,20.50
2023-03-29T17:57:38.844Z,20.40
2023-03-29T18:00:06.595Z,20.40
2023-03-29T18:02:33.469Z,20.40
2023-03-29T18:05:01.835Z,20.30
2023-03-29T18:07:29.400Z,20.20
2023-03-29T18:09:56.578Z,20.20
2023-03-29T18:12:26.700Z,20.20
2023-03-29T18:14:53.464Z,20.10
2023-03-29T18:17:20.420Z,20.10
2023-03-29T18:19:47.125Z,20.00
2023-03-29T18:22:14.144Z,20.00
2023-03-29T18:24:40.964Z,19.90
2023-03-29T18:27:07.677Z,19.90
2023-03-29T18:29:34.398Z,19.80
2023-03-29T18:32:03.063Z,19.80
2023-03-29T18:34:30.748Z,19.80
2023-03-29T18:36:57.647Z,19.70
2023-03-29T18:39:24.429Z,19.70
2023-03-29T18:41:51.199Z,19.60
2023-03-29T18:44:17.930Z,19.60
2023-03-29T18:46:44.852Z,19.50
2023-03-29T18:49:13.203Z,19.50
2023-03-29T18:51:40.287Z,19.50
2023-03-29T18:54:08.618Z,19.50
2023-03-29T18:56:35.906Z,19.40
2023-03-29T18:59:06.628Z,19.40
2023-03-29T19:01:33.716Z,19.40
2023-03-29T19:04:00.748Z,19.40
2023-03-29T19:06:27.470Z,19.30
2023-03-29T19:08:55.345Z,19.30
2023-03-29T19:11:23.023Z,19.30
2023-03-29T19:13:50.789Z,19.30
2023-03-29T19:16:17.964Z,19.30
2023-03-29T19:18:44.930Z,19.30
2023-03-29T19:21:12.030Z,19.30
2023-03-29T19:23:39.138Z,19.30
2023-03-29T19:26:06.194Z,19.30
2023-03-29T19:28:33.766Z,19.30
2023-03-29T19:31:01.386Z,19.30
2023-03-29T19:33:29.318Z,19.40
2023-03-29T19:35:56.340Z,19.30
2023-03-29T19:38:23.405Z,19.30
2023-03-29T19:40:50.932Z,19.40
2023-03-29T19:43:18.003Z,19.40
2023-03-29T19:45:48.956Z,19.30
2023-03-29T19:48:22.236Z,19.30
2023-03-29T19:50:50.174Z,19.40
2023-03-29T19:53:17.287Z,19.30
2023-03-29T19:55:45.415Z,19.30
2023-03-29T19:58:12.927Z,19.30
2023-03-29T20:00:41.827Z,19.30
2023-03-29T20:03:14.105Z,19.30
2023-03-29T20:05:41.321Z,19.30
2023-03-29T20:08:08.196Z,19.30
2023-03-29T20:10:35.648Z,19.30
2023-03-29T20:13:02.760Z,19.20
2023-03-29T20:15:29.445Z,19.20
2023-03-29T20:17:59.441Z,19.20
2023-03-29T20:20:26.875Z,19.20
2023-03-29T20:23:04.631Z,19.20
2023-03-29T20:25:32.951Z,19.20
2023-03-29T20:28:00.900Z,19.20
2023-03-29T20:30:27.639Z,19.20
2023-03-29T20:32:54.477Z,19.20
2023-03-29T20:35:21.442Z,19.10
2023-03-29T20:37:48.238Z,19.20
2023-03-29T20:40:16.024Z,19.10
2023-03-29T20:42:42.801Z,19.20
2023-03-29T20:45:18.193Z,19.20
2023-03-29T20:47:59.883Z,19.20
2023-03-29T20:50:26.709Z,19.20
2023-03-29T20:52:56.642Z,19.20
2023-03-29T20:55:23.526Z,19.20
2023-03-29T20:57:51.342Z,19.20
2023-03-29T21:00:19.737Z,19.20
2023-03-29T21:02:47.350Z,19.30
2023-03-29T21:05:14.532Z,19.20
2023-03-29T21:07:44.847Z,19.20
2023-03-29T21:10:12.121Z,19.30
2023-03-29T21:12:40.023Z,19.20
2023-03-29T21:15:08.045Z,19.30
2023-03-29T21:17:35.480Z,19.20
2023-03-29T21:20:03.216Z,19.30
2023-03-29T21:22:30.482Z,19.30
2023-03-29T21:24:57.884Z,19.30
2023-03-29T21:27:24.986Z,19.30
2023-03-29T21:29:51.930Z,19.30
2023-03-29T21:32:18.759Z,19.30
2023-03-29T21:34:45.467Z,19.30
2023-03-29T21:37:15.193Z,19.30
2023-03-29T21:39:42.075Z,19.30
2023-03-29T21:42:08.794Z,19.30
2023-03-29T21:44:35.534Z,19.30
2023-03-29T21:47:02.402Z,19.30
2023-03-29T21:49:29.273Z,19.30
2023-03-29T21:51:56.878Z,19.20
2023-03-29T21:54:23.687Z,19.20
2023-03-29T21:56:50.749Z,19.10
2023-03-29T21:59:17.770Z,19.10
2023-03-29T22:01:44.394Z,19.10
2023-03-29T22:04:11.155Z,19.10
2023-03-29T22:06:38.380Z,19.00
2023-03-29T22:09:05.255Z,19.00
2023-03-29T22:11:31.987Z,19.00
2023-03-29T22:13:59.032Z,19.00
2023-03-29T22:16:25.937Z,19.00
2023-03-29T22:18:54.214Z,19.00
2023-03-29T22:21:27.297Z,18.90
2023-03-29T22:23:55.124Z,19.00
2023-03-29T22:26:23.543Z,18.90
2023-03-29T22:28:51.111Z,19.00
2023-03-29T22:31:18.758Z,19.00
2023-03-29T22:33:46.389Z,19.00
2023-03-29T22:36:24.313Z,19.00
2023-03-29T22:38:51.428Z,19.00
2023-03-29T22:41:18.691Z,19.00
2023-03-29T22:43:45.672Z,19.00
2023-03-29T22:46:13.025Z,19.00
2023-03-29T22:48:39.968Z,19.00
2023-03-29T22:51:06.907Z,19.00
2023-03-29T22:53:34.063Z,19.10
2023-03-29T22:56:00.912Z,19.00
2023-03-29T22:58:29.541Z,19.00
2023-03-29T23:00:57.127Z,19.00
2023-03-29T23:03:24.160Z,19.10
2023-03-29T23:05:51.826Z,19.00
2023-03-29T23:08:18.963Z,19.00
2023-03-29T23:10:46.291Z,19.00
2023-03-29T23:13:13.630Z,19.00
2023-03-29T23:15:45.766Z,19.00
2023-03-29T23:18:17.121Z,19.00
2023-03-29T23:20:44.404Z,19.10
2023-03-29T23:23:11.279Z,19.00
2023-03-29T23:25:38.335Z,19.10
2023-03-29T23:28:05.243Z,19.10
2023-03-29T23:30:33.704Z,19.10
2023-03-29T23:33:00.404Z,19.10
2023-03-29T23:35:27.216Z,19.10
2023-03-29T23:37:54.592Z,19.10
2023-03-29T23:40:22.085Z,19.20
2023-03-29T23:42:48.992Z,19.20
2023-03-29T23:45:16.680Z,19.20
2023-03-29T23:47:44.159Z,19.20
2023-03-29T23:50:13.249Z,19.20
2023-03-29T23:52:40.707Z,19.20
2023-03-29T23:55:13.339Z,19.20
2023-03-29T23:57:40.616Z,19.20
